Time;durP1;ratioP1;P1;durP2;ratioP2;P2;SDS_P1;SDS_P2;PMS_P1;PMS_P2;Temp;Humidity;BMP_temperature;BMP_pressure;BME280_temperature;BME280_humidity;BME280_pressure;Samples;Min_cycle;Max_cycle;Signal;HPM_P1;HPM_P2
2022/08/15 00:00:24;;;;;;;11.00;10.00;;;;;;;21.57;75.54;99797.08;106274;1271;24171;-76
2022/08/15 00:02:53;;;;;;;12.90;10.90;;;;;;;21.56;75.59;99793.36;106486;1271;22522;-74
2022/08/15 00:05:31;;;;;;;12.20;10.90;;;;;;;21.57;75.65;99791.88;106362;1271;25298;-74
2022/08/15 00:08:06;;;;;;;12.10;10.30;;;;;;;21.54;75.75;99787.23;106276;1271;25307;-75
2022/08/15 00:10:57;;;;;;;14.30;10.30;;;;;;;21.56;75.64;99786.75;106286;1271;22535;-75
2022/08/15 00:13:30;;;;;;;12.00;10.10;;;;;;;21.56;75.70;99784.80;106104;1271;22765;-74
2022/08/15 00:16:09;;;;;;;12.20;11.00;;;;;;;21.55;75.89;99781.81;106342;1268;26510;-75
2022/08/15 00:18:36;;;;;;;12.20;10.80;;;;;;;21.55;75.81;99781.27;106270;1271;22625;-74
2022/08/15 00:21:04;;;;;;;11.90;10.90;;;;;;;21.52;75.79;99778.73;106514;1271;22545;-75
2022/08/15 00:23:36;;;;;;;13.70;10.60;;;;;;;21.52;75.90;99775.16;106420;1271;22547;-76
2022/08/15 00:26:04;;;;;;;12.70;10.60;;;;;;;21.51;75.81;99773.62;106420;1271;22573;-77
2022/08/15 00:28:51;;;;;;;12.20;10.90;;;;;;;21.49;76.11;99775.86;106415;1271;22832;-73
2022/08/15 00:31:22;;;;;;;15.50;12.10;;;;;;;21.48;76.04;99777.92;106243;1271;25605;-73
2022/08/15 00:34:10;;;;;;;12.20;11.00;;;;;;;21.49;76.04;99782.52;106161;1271;25260;-71
2022/08/15 00:36:57;;;;;;;13.00;11.40;;;;;;;21.47;76.09;99783.39;106156;1271;22533;-73
2022/08/15 00:39:26;;;;;;;13.10;11.10;;;;;;;21.44;76.22;99778.59;106486;1271;25566;-75
2022/08/15 00:42:02;;;;;;;12.80;11.40;;;;;;;21.42;76.28;99781.18;106397;1271;22556;-76
2022/08/15 00:44:40;;;;;;;15.10;12.10;;;;;;;21.41;76.23;99781.95;106377;1271;22538;-76
2022/08/15 00:47:22;;;;;;;13.20;11.90;;;;;;;21.43;76.43;99783.47;106226;1271;22753;-75
2022/08/15 00:49:49;;;;;;;13.30;11.80;;;;;;;21.40;76.42;99782.58;106157;1274;22532;-74
2022/08/15 00:52:31;;;;;;;12.20;10.80;;;;;;;21.39;76.37;99783.35;106165;1271;22687;-77
2022/08/15 00:55:15;;;;;;;13.30;11.40;;;;;;;21.38;76.49;99783.05;106330;1271;26501;-77
2022/08/15 00:57:45;;;;;;;13.80;12.30;;;;;;;21.37;76.40;99784.04;106269;1271;22982;-85
2022/08/15 01:00:42;;;;;;;13.10;11.80;;;;;;;21.34;76.47;99787.62;106249;1271;22541;-77
2022/08/15 01:03:20;;;;;;;18.30;12.30;;;;;;;21.28;76.49;99791.23;106301;1274;22544;-76
2022/08/15 01:05:53;;;;;;;12.70;11.50;;;;;;;21.23;76.71;99789.73;106332;1271;25235;-73
2022/08/15 01:08:23;;;;;;;13.40;11.50;;;;;;;21.21;76.68;99785.57;106307;1272;22803;-75
2022/08/15 01:11:20;;;;;;;13.30;12.00;;;;;;;21.09;76.72;99781.68;106258;1271;25414;-74
2022/08/15 01:13:49;;;;;;;16.80;13.20;;;;;;;21.07;77.22;99776.08;106230;1271;25469;-77
2022/08/15 01:16:39;;;;;;;16.90;12.50;;;;;;;21.07;77.31;99770.70;106251;1271;25344;-75
2022/08/15 01:19:16;;;;;;;13.80;11.50;;;;;;;21.08;77.27;99766.69;106212;1271;22838;-73
2022/08/15 01:22:02;;;;;;;12.90;11.20;;;;;;;21.09;77.45;99765.33;106198;1271;22635;-82
2022/08/15 01:24:53;;;;;;;13.50;12.00;;;;;;;21.11;77.22;99765.24;106167;1271;22737;-74
2022/08/15 01:28:03;;;;;;;14.10;12.20;;;;;;;21.12;77.25;99761.58;106404;1271;22620;-75
2022/08/15 01:30:39;;;;;;;13.70;12.30;;;;;;;21.12;77.32;99756.73;106174;1271;22525;-73
2022/08/15 01:33:28;;;;;;;14.40;12.30;;;;;;;21.11;77.39;99753.02;106055;1271;22515;-75
2022/08/15 01:35:58;;;;;;;13.80;12.20;;;;;;;21.09;77.43;99755.52;106032;1274;22543;-77
2022/08/15 01:38:32;;;;;;;14.60;12.20;;;;;;;21.07;77.37;99759.06;106268;1271;22525;-75
2022/08/15 01:41:32;;;;;;;13.60;12.20;;;;;;;21.10;77.46;99759.41;106342;1271;24465;-75
2022/08/15 01:44:18;;;;;;;13.90;12.50;;;;;;;21.11;77.35;99761.43;106478;1271;22525;-75
2022/08/15 01:47:13;;;;;;;14.00;12.70;;;;;;;21.11;77.32;99766.66;106430;1271;22538;-75
2022/08/15 01:49:55;;;;;;;12.10;10.90;;;;;;;21.06;77.46;99766.09;106411;1271;22548;-76
2022/08/15 01:52:34;;;;;;;14.70;13.10;;;;;;;21.03;77.56;99763.73;106313;1271;22525;-73
2022/08/15 01:55:32;;;;;;;12.90;11.60;;;;;;;21.03;77.74;99770.52;106248;1271;25502;-74
2022/08/15 01:58:10;;;;;;;14.20;12.70;;;;;;;21.05;77.77;99768.50;106065;1271;22555;-75
2022/08/15 02:01:00;;;;;;;13.70;12.20;;;;;;;21.06;77.58;99766.85;106200;1271;22544;-71
2022/08/15 02:03:36;;;;;;;13.80;11.50;;;;;;;20.99;77.47;99770.09;106121;1271;25466;-75
2022/08/15 02:06:23;;;;;;;13.60;12.30;;;;;;;20.99;77.77;99771.74;106255;1271;25300;-75
2022/08/15 02:09:06;;;;;;;14.60;13.20;;;;;;;21.00;77.75;99768.41;106424;1271;26504;-72
2022/08/15 02:11:55;;;;;;;13.90;12.60;;;;;;;21.01;77.77;99769.77;106405;1271;24373;-73
2022/08/15 02:14:31;;;;;;;15.40;13.40;;;;;;;20.99;77.70;99760.45;105905;1277;22547;-77
2022/08/15 02:17:12;;;;;;;13.50;12.30;;;;;;;20.99;77.97;99759.69;105157;1282;22586;-79
2022/08/15 02:19:42;;;;;;;13.90;12.40;;;;;;;20.98;77.75;99752.08;105007;1284;22715;-80
2022/08/15 02:22:20;;;;;;;14.70;12.30;;;;;;;20.99;77.86;99756.52;105135;1284;24232;-75
2022/08/15 02:24:56;;;;;;;14.30;12.80;;;;;;;20.97;77.90;99752.30;106116;1284;22555;-74
2022/08/15 02:27:25;;;;;;;13.20;12.00;;;;;;;20.92;78.05;99744.95;105758;1281;22691;-75
2022/08/15 02:29:52;;;;;;;13.90;12.10;;;;;;;20.90;78.03;99741.14;105360;1281;22859;-75
2022/08/15 02:32:21;;;;;;;14.30;12.80;;;;;;;20.91;77.99;99735.84;105648;1278;22700;-77
2022/08/15 02:34:58;;;;;;;14.70;13.00;;;;;;;20.92;77.92;99737.58;106087;1274;22684;-77
2022/08/15 02:37:25;;;;;;;14.60;13.10;;;;;;;20.94;78.24;99740.22;106683;1271;25258;-75
2022/08/15 02:39:53;;;;;;;13.40;12.10;;;;;;;20.93;78.19;99745.28;106442;1271;24224;-76
2022/08/15 02:42:42;;;;;;;13.80;12.00;;;;;;;20.92;78.04;99746.70;106323;1271;22534;-75
2022/08/15 02:45:14;;;;;;;13.10;11.80;;;;;;;20.93;77.87;99753.27;106401;1271;24292;-77
2022/08/15 02:47:45;;;;;;;14.40;12.90;;;;;;;20.93;77.98;99740.77;106387;1271;22571;-76
2022/08/15 02:50:15;;;;;;;14.00;12.70;;;;;;;20.96;78.08;99738.04;106447;1271;25247;-73
2022/08/15 02:52:47;;;;;;;14.10;12.60;;;;;;;20.96;77.99;99734.69;106262;1271;23958;-73
2022/08/15 02:55:20;;;;;;;15.20;12.30;;;;;;;20.88;77.91;99729.39;106156;1271;24292;-76
2022/08/15 02:57:48;;;;;;;14.50;12.60;;;;;;;20.85;78.13;99725.13;106273;1271;25191;-76
2022/08/15 03:00:29;;;;;;;14.50;13.10;;;;;;;20.82;78.18;99717.61;106511;1271;25290;-77
2022/08/15 03:03:06;;;;;;;14.40;12.90;;;;;;;20.83;78.20;99720.95;106581;1271;25357;-76
2022/08/15 03:05:36;;;;;;;14.70;13.30;;;;;;;20.83;78.38;99720.09;106290;1271;25466;-74
2022/08/15 03:08:04;;;;;;;14.10;12.70;;;;;;;20.84;78.31;99731.48;106439;1271;22531;-73
2022/08/15 03:10:33;;;;;;;14.40;12.80;;;;;;;20.87;78.55;99731.10;106400;1271;24493;-76
2022/08/15 03:13:12;;;;;;;15.60;13.10;;;;;;;20.91;78.27;99731.92;106372;1271;25325;-78
2022/08/15 03:15:44;;;;;;;15.10;13.70;;;;;;;20.90;78.34;99730.19;106185;1271;22522;-73
2022/08/15 03:18:32;;;;;;;14.50;12.90;;;;;;;20.89;78.35;99727.73;106208;1271;22594;-78
2022/08/15 03:21:05;;;;;;;13.70;12.30;;;;;;;20.89;78.22;99728.46;106226;1271;22651;-76
2022/08/15 03:23:33;;;;;;;14.90;13.40;;;;;;;20.86;78.24;99728.25;106383;1271;22699;-78
2022/08/15 03:26:11;;;;;;;14.00;12.60;;;;;;;20.86;78.12;99732.41;106374;1271;22540;-75
2022/08/15 03:28:52;;;;;;;15.10;13.50;;;;;;;20.86;78.29;99738.85;106190;1271;24256;-75
2022/08/15 03:31:33;;;;;;;13.70;12.30;;;;;;;20.84;78.38;99737.51;106413;1271;24826;-75
2022/08/15 03:34:12;;;;;;;15.90;12.60;;;;;;;20.87;78.42;99737.34;106473;1271;25473;-77
2022/08/15 03:36:45;;;;;;;15.10;13.00;;;;;;;20.88;78.20;99734.40;106299;1271;24621;-77
2022/08/15 03:39:20;;;;;;;15.10;13.70;;;;;;;20.88;78.48;99735.84;106258;1269;22535;-76
2022/08/15 03:41:49;;;;;;;14.80;13.30;;;;;;;20.84;78.20;99745.95;106527;1271;25311;-76
2022/08/15 03:44:23;;;;;;;14.80;12.40;;;;;;;20.80;78.44;99746.55;106313;1271;22538;-77
2022/08/15 03:46:52;;;;;;;15.70;12.10;;;;;;;20.79;78.46;99750.54;106373;1271;22541;-76
2022/08/15 03:49:20;;;;;;;13.70;12.40;;;;;;;20.80;78.77;99745.29;106041;1271;22561;-78
2022/08/15 03:52:08;;;;;;;14.00;12.70;;;;;;;20.85;78.66;99748.59;106198;1271;22521;-76
2022/08/15 03:54:37;;;;;;;14.50;13.10;;;;;;;20.87;78.58;99742.36;106373;1271;24774;-75
2022/08/15 03:57:07;;;;;;;14.10;12.40;;;;;;;20.88;78.60;99739.77;106361;1271;22548;-76
2022/08/15 03:59:34;;;;;;;14.00;12.60;;;;;;;20.87;78.55;99739.87;106223;1271;25312;-80
2022/08/15 04:02:09;;;;;;;14.10;11.70;;;;;;;20.86;78.45;99736.35;106591;1271;22534;-73
2022/08/15 04:04:56;;;;;;;13.30;11.90;;;;;;;20.87;78.68;99722.12;106420;1271;24310;-76
2022/08/15 04:07:26;;;;;;;13.70;12.20;;;;;;;20.92;78.57;99723.08;106443;1271;22532;-74
2022/08/15 04:10:12;;;;;;;13.90;12.50;;;;;;;20.95;78.57;99715.27;106426;1269;22524;-75
2022/08/15 04:13:01;;;;;;;17.40;13.50;;;;;;;20.89;78.36;99713.02;106489;1271;22570;-76
2022/08/15 04:15:28;;;;;;;13.30;12.30;;;;;;;20.86;78.43;99715.96;106387;1271;22652;-76
2022/08/15 04:17:57;;;;;;;13.60;12.20;;;;;;;20.86;78.58;99710.59;106174;1271;22826;-78
2022/08/15 04:20:30;;;;;;;14.50;13.20;;;;;;;20.88;78.55;99707.22;106388;1271;22538;-75
2022/08/15 04:23:03;;;;;;;13.40;12.20;;;;;;;20.91;78.57;99701.48;106487;1271;24518;-74
2022/08/15 04:25:34;;;;;;;14.50;13.30;;;;;;;20.94;78.49;99702.39;106440;1271;25082;-77
2022/08/15 04:28:14;;;;;;;14.60;13.20;;;;;;;20.96;78.49;99702.60;106536;1271;24497;-74
2022/08/15 04:31:05;;;;;;;14.90;13.50;;;;;;;21.00;78.42;99698.45;106355;1271;22697;-77
2022/08/15 04:33:34;;;;;;;13.90;12.40;;;;;;;21.02;78.42;99705.31;106383;1271;25236;-75
2022/08/15 04:36:22;;;;;;;13.80;12.30;;;;;;;21.05;78.40;99705.48;106388;1271;22553;-74
2022/08/15 04:38:57;;;;;;;13.50;12.10;;;;;;;21.07;78.40;99705.34;106289;1271;22548;-75
2022/08/15 04:41:30;;;;;;;13.90;12.50;;;;;;;21.08;78.38;99704.73;106339;1271;22467;-76
2022/08/15 04:44:04;;;;;;;13.90;12.50;;;;;;;21.10;78.16;99709.82;106435;1271;22605;-76
2022/08/15 04:46:31;;;;;;;16.90;12.50;;;;;;;21.09;78.14;99712.23;106479;1271;22534;-76
2022/08/15 04:48:59;;;;;;;13.50;12.20;;;;;;;21.09;78.24;99715.43;106421;1271;25639;-83
2022/08/15 04:51:27;;;;;;;12.60;11.30;;;;;;;21.12;78.41;99717.04;106305;1271;25250;-78
2022/08/15 04:54:05;;;;;;;13.20;12.10;;;;;;;21.19;78.44;99710.86;106304;1271;25079;-76
2022/08/15 04:56:35;;;;;;;13.30;12.10;;;;;;;21.22;78.29;99709.41;106399;1271;22651;-77
2022/08/15 04:59:19;;;;;;;13.40;12.10;;;;;;;21.26;78.14;99710.04;106538;1271;22527;-77
2022/08/15 05:02:21;;;;;;;12.70;11.50;;;;;;;21.32;78.22;99713.29;106271;1271;22644;-75
2022/08/15 05:05:10;;;;;;;17.80;12.30;;;;;;;21.35;77.96;99715.38;106181;1271;22540;-71
2022/08/15 05:07:37;;;;;;;13.90;12.50;;;;;;;21.39;78.01;99719.45;106123;1271;24421;-78
2022/08/15 05:10:24;;;;;;;14.40;13.00;;;;;;;21.40;78.06;99727.80;106286;1271;25418;-74
2022/08/15 05:13:09;;;;;;;13.80;12.50;;;;;;;21.41;77.94;99736.11;106213;1271;22687;-75
2022/08/15 05:15:38;;;;;;;13.50;12.10;;;;;;;21.45;78.14;99736.92;106180;1271;25527;-75
2022/08/15 05:18:22;;;;;;;14.60;12.60;;;;;;;21.49;78.00;99734.33;106501;1271;22544;-74
2022/08/15 05:20:50;;;;;;;15.90;13.00;;;;;;;21.51;77.94;99730.81;106186;1271;22689;-73
2022/08/15 05:23:21;;;;;;;14.00;12.70;;;;;;;21.52;78.12;99728.93;106180;1271;22522;-73
2022/08/15 05:26:02;;;;;;;13.90;12.50;;;;;;;21.56;77.95;99728.36;106201;1271;22525;-75
2022/08/15 05:28:30;;;;;;;13.70;12.30;;;;;;;21.60;78.05;99731.34;106281;1271;22525;-75
2022/08/15 05:31:06;;;;;;;13.10;11.80;;;;;;;21.66;77.91;99739.38;106320;1271;22626;-79
2022/08/15 05:33:46;;;;;;;13.30;11.90;;;;;;;21.74;78.01;99742.02;106169;1271;22699;-74
2022/08/15 05:36:25;;;;;;;13.30;12.10;;;;;;;21.83;77.89;99745.08;106188;1271;22525;-74
2022/08/15 05:38:58;;;;;;;14.50;13.00;;;;;;;21.87;77.74;99741.05;106279;1271;24244;-75
2022/08/15 05:41:32;;;;;;;13.20;11.70;;;;;;;21.94;77.87;99739.37;106126;1271;22540;-75
2022/08/15 05:44:40;;;;;;;13.00;11.70;;;;;;;22.05;77.31;99738.04;106219;1271;22595;-75
2022/08/15 05:47:39;;;;;;;12.40;11.40;;;;;;;22.18;77.22;99740.23;106153;1271;22605;-76
2022/08/15 05:50:25;;;;;;;13.70;12.30;;;;;;;22.27;77.02;99739.05;106385;1271;22610;-75
2022/08/15 05:53:13;;;;;;;12.60;11.30;;;;;;;22.35;77.19;99741.92;106255;1271;25361;-77
2022/08/15 05:55:55;;;;;;;12.70;11.30;;;;;;;22.42;76.92;99748.66;106322;1271;24771;-72
2022/08/15 05:58:23;;;;;;;13.10;11.60;;;;;;;22.48;76.69;99746.09;106409;1269;22556;-76
2022/08/15 06:01:37;;;;;;;13.40;12.00;;;;;;;22.52;76.22;99757.63;106387;1271;26497;-76
2022/08/15 06:04:17;;;;;;;13.70;12.40;;;;;;;22.56;75.98;99764.00;106385;1271;25382;-74
2022/08/15 06:07:05;;;;;;;13.90;12.70;;;;;;;22.58;75.49;99765.48;106353;1271;25355;-76
2022/08/15 06:09:39;;;;;;;12.30;10.90;;;;;;;22.56;75.41;99762.40;106369;1271;22541;-75
2022/08/15 06:12:40;;;;;;;15.20;13.70;;;;;;;22.60;75.31;99756.94;106439;1271;25416;-76
2022/08/15 06:15:27;;;;;;;12.00;10.80;;;;;;;22.69;75.26;99756.30;106346;1271;25301;-76
2022/08/15 06:18:09;;;;;;;15.30;13.30;;;;;;;22.80;75.19;99755.39;106335;1269;22537;-79
2022/08/15 06:21:02;;;;;;;13.90;12.60;;;;;;;22.85;74.50;99751.95;106048;1271;25155;-73
2022/08/15 06:23:34;;;;;;;13.40;11.50;;;;;;;22.85;74.40;99756.62;106454;1271;22526;-75
2022/08/15 06:26:17;;;;;;;12.10;11.00;;;;;;;22.87;74.44;99751.84;106508;1271;22541;-75
2022/08/15 06:29:12;;;;;;;12.80;11.60;;;;;;;22.88;74.03;99752.50;106211;1271;24351;-78
2022/08/15 06:32:04;;;;;;;13.30;12.10;;;;;;;22.86;74.02;99757.29;106057;1271;22857;-80
2022/08/15 06:35:03;;;;;;;13.20;11.90;;;;;;;22.87;74.25;99752.02;106336;1270;22549;-78
2022/08/15 06:37:45;;;;;;;13.30;11.00;;;;;;;22.87;74.02;99744.70;106490;1271;25280;-74
2022/08/15 06:41:17;;;;;;;13.00;11.90;;;;;;;22.90;74.19;99748.41;106373;1271;24852;-75
2022/08/15 06:43:46;;;;;;;13.10;11.90;;;;;;;22.97;74.06;99749.02;106383;1271;22553;-80
2022/08/15 06:46:22;;;;;;;14.30;13.10;;;;;;;22.96;73.79;99746.39;106482;1268;22525;-76
2022/08/15 06:49:12;;;;;;;14.20;12.60;;;;;;;22.97;73.85;99745.92;106591;1271;25206;-72
2022/08/15 06:51:44;;;;;;;12.50;11.40;;;;;;;23.04;74.14;99746.52;106792;1271;22561;-71
2022/08/15 06:54:22;;;;;;;12.90;11.80;;;;;;;23.12;73.89;99747.77;106503;1271;22651;-77
2022/08/15 06:57:13;;;;;;;13.10;11.00;;;;;;;23.19;73.86;99738.42;106533;1270;22527;-77
2022/08/15 07:00:02;;;;;;;12.70;11.60;;;;;;;23.21;73.52;99736.14;106478;1271;22700;-75
2022/08/15 07:02:47;;;;;;;13.00;11.70;;;;;;;23.31;73.27;99742.08;106354;1271;25251;-77
2022/08/15 07:05:20;;;;;;;12.90;11.80;;;;;;;23.39;73.12;99741.01;106492;1271;22550;-72
2022/08/15 07:08:01;;;;;;;12.40;10.80;;;;;;;23.48;73.04;99740.70;106430;1271;26497;-78
2022/08/15 07:11:08;;;;;;;12.80;11.50;;;;;;;23.60;73.08;99738.59;106454;1271;22547;-77
2022/08/15 07:14:07;;;;;;;12.70;11.60;;;;;;;23.76;72.74;99742.93;106329;1271;22678;-77
2022/08/15 07:17:27;;;;;;;14.30;11.60;;;;;;;23.96;72.75;99746.89;106456;1271;22525;-78
2022/08/15 07:20:00;;;;;;;15.60;11.50;;;;;;;24.08;72.42;99745.26;106278;1271;22532;-77
2022/08/15 07:22:46;;;;;;;13.00;11.80;;;;;;;24.22;72.37;99755.94;106423;1271;22541;-77
2022/08/15 07:25:28;;;;;;;12.80;11.20;;;;;;;24.29;72.32;99754.98;106479;1271;22528;-76
2022/08/15 07:27:57;;;;;;;11.80;10.80;;;;;;;24.37;71.91;99762.02;106587;1271;22563;-77
2022/08/15 07:30:52;;;;;;;13.10;11.80;;;;;;;24.44;71.93;99762.14;106418;1271;22737;-74
2022/08/15 07:33:41;;;;;;;12.40;11.40;;;;;;;24.49;70.88;99758.56;106445;1271;22556;-76
2022/08/15 07:36:34;;;;;;;13.40;10.60;;;;;;;24.45;70.63;99759.70;106442;1271;22521;-77
2022/08/15 07:39:19;;;;;;;;;;;;;;;24.44;70.20;99757.33;106398;1271;22524;-78
2022/08/15 07:42:13;;;;;;;14.00;12.20;;;;;;;24.41;69.95;99755.92;106330;1271;24790;-77
2022/08/15 07:45:01;;;;;;;11.80;10.80;;;;;;;24.39;69.72;99756.44;106298;1271;25238;-80
2022/08/15 07:47:33;;;;;;;12.20;10.80;;;;;;;24.37;69.87;99751.86;106115;1271;22527;-73
2022/08/15 07:50:11;;;;;;;12.70;11.40;;;;;;;24.48;69.77;99755.34;106283;1271;22756;-76
2022/08/15 07:52:56;;;;;;;11.70;10.60;;;;;;;24.58;69.76;99749.56;106289;1271;22752;-73
2022/08/15 07:55:23;;;;;;;11.10;10.10;;;;;;;24.69;69.64;99744.59;106439;1270;25372;-74
2022/08/15 07:58:13;;;;;;;12.10;10.90;;;;;;;24.78;69.03;99755.55;106323;1271;24288;-76
2022/08/15 08:01:22;;;;;;;12.40;11.30;;;;;;;24.85;69.33;99751.80;106293;1271;24430;-73
2022/08/15 08:04:09;;;;;;;13.10;10.30;;;;;;;24.92;69.27;99753.39;106252;1269;25225;-72
2022/08/15 08:07:08;;;;;;;14.60;11.00;;;;;;;24.96;68.93;99753.27;106241;1268;24726;-73
2022/08/15 08:09:44;;;;;;;11.20;10.10;;;;;;;25.00;68.42;99753.33;106398;1270;22594;-74
2022/08/15 08:12:23;;;;;;;11.50;10.50;;;;;;;25.00;68.45;99753.73;106349;1270;22650;-77
2022/08/15 08:15:14;;;;;;;12.10;10.60;;;;;;;24.96;67.94;99755.58;106336;1271;22524;-81
2022/08/15 08:18:00;;;;;;;15.10;10.60;;;;;;;24.94;67.58;99755.09;106454;1269;23947;-72
2022/08/15 08:20:45;;;;;;;13.90;11.20;;;;;;;24.90;67.40;99757.00;107156;1271;22553;-71
2022/08/15 08:23:27;;;;;;;11.80;10.80;;;;;;;24.86;67.07;99755.64;106584;1271;22525;-80
2022/08/15 08:26:32;;;;;;;11.60;10.40;;;;;;;24.84;66.99;99753.11;106348;1271;22544;-80
2022/08/15 08:29:12;;;;;;;11.80;10.60;;;;;;;24.89;67.20;99757.77;105822;1276;25374;-76
2022/08/15 08:32:00;;;;;;;12.80;9.80;;;;;;;24.96;67.00;99755.21;106930;1271;23955;-73
2022/08/15 08:35:05;;;;;;;10.60;9.70;;;;;;;25.09;66.93;99753.20;107190;1271;25380;-71
2022/08/15 08:38:01;;;;;;;11.80;10.40;;;;;;;25.23;67.12;99753.84;107269;1271;22579;-73
2022/08/15 08:44:02;;;;;;;12.00;10.80;;;;;;;25.38;66.48;99763.05;106343;1271;22609;-76
2022/08/15 08:47:30;;;;;;;11.40;10.30;;;;;;;25.46;66.62;99763.02;106693;1271;25394;-77
2022/08/15 08:50:21;;;;;;;11.40;10.30;;;;;;;25.52;66.49;99763.42;106334;1270;24217;-74
2022/08/15 08:53:15;;;;;;;11.80;10.60;;;;;;;25.53;66.60;99763.73;106362;1271;26500;-76
2022/08/15 08:55:57;;;;;;;11.70;10.70;;;;;;;25.56;66.45;99761.23;106534;1268;22535;-76
2022/08/15 08:58:33;;;;;;;11.50;10.40;;;;;;;25.62;66.52;99769.26;106295;1271;22527;-73
2022/08/15 09:01:14;;;;;;;12.20;11.00;;;;;;;25.64;66.38;99765.50;106430;1271;24471;-73
2022/08/15 09:03:47;;;;;;;13.80;10.80;;;;;;;25.65;66.09;99765.28;106543;1271;24029;-75
2022/08/15 09:06:23;;;;;;;11.50;10.30;;;;;;;25.66;65.79;99763.06;106334;1271;25235;-73
2022/08/15 09:09:25;;;;;;;14.40;11.00;;;;;;;25.65;65.63;99763.14;106363;1271;25236;-74
2022/08/15 09:12:03;;;;;;;13.30;10.30;;;;;;;25.57;65.61;99763.57;106235;1271;22551;-78
2022/08/15 09:14:43;;;;;;;11.10;10.10;;;;;;;25.55;65.50;99763.55;106307;1271;25411;-77
2022/08/15 09:17:31;;;;;;;12.00;10.90;;;;;;;25.51;65.56;99758.98;106254;1271;23147;-75
2022/08/15 09:20:15;;;;;;;13.40;10.70;;;;;;;25.62;65.57;99765.53;106298;1271;22881;-73
2022/08/15 09:22:48;;;;;;;12.00;11.00;;;;;;;25.74;65.54;99763.80;106434;1268;22767;-75
2022/08/15 09:25:21;;;;;;;11.20;10.10;;;;;;;25.85;65.35;99767.02;106158;1271;25248;-76
2022/08/15 09:28:15;;;;;;;11.70;9.90;;;;;;;26.06;65.34;99760.83;106277;1271;25232;-77
2022/08/15 09:31:01;;;;;;;10.60;9.50;;;;;;;26.30;65.11;99761.86;106306;1271;22546;-75
2022/08/15 09:34:04;;;;;;;17.20;10.20;;;;;;;26.48;64.95;99764.52;106257;1271;25358;-73
2022/08/15 09:36:38;;;;;;;11.20;10.30;;;;;;;26.65;64.00;99763.74;106315;1271;23291;-75
2022/08/15 09:39:17;;;;;;;11.20;10.10;;;;;;;26.87;63.91;99760.98;106367;1269;25471;-77
2022/08/15 09:42:02;;;;;;;11.00;10.00;;;;;;;27.11;63.87;99758.15;106538;1270;22521;-76
2022/08/15 09:45:12;;;;;;;11.00;10.00;;;;;;;27.35;62.85;99758.21;106486;1271;22524;-76
2022/08/15 09:48:15;;;;;;;11.90;10.20;;;;;;;27.49;62.13;99754.45;106394;1271;22580;-75
2022/08/15 09:51:21;;;;;;;11.50;10.30;;;;;;;27.55;61.61;99746.64;106354;1268;22690;-77
2022/08/15 09:54:01;;;;;;;11.00;9.90;;;;;;;27.56;61.35;99744.56;106345;1271;26068;-75
2022/08/15 09:56:50;;;;;;;11.10;10.00;;;;;;;27.52;60.98;99744.38;106353;1271;25365;-76
2022/08/15 09:59:25;;;;;;;11.30;10.00;;;;;;;27.56;61.31;99738.25;106271;1271;23188;-75
2022/08/15 10:01:58;;;;;;;10.10;9.20;;;;;;;27.61;60.95;99737.42;106170;1271;22528;-76
2022/08/15 10:05:01;;;;;;;10.70;9.70;;;;;;;27.60;60.51;99738.67;106267;1271;22535;-84
2022/08/15 10:07:46;;;;;;;12.20;9.90;;;;;;;27.60;60.81;99735.40;106236;1271;22975;-75
2022/08/15 10:10:22;;;;;;;11.30;10.30;;;;;;;27.61;60.44;99728.57;106360;1271;25461;-76
2022/08/15 10:13:04;;;;;;;11.40;9.60;;;;;;;27.63;60.60;99727.48;106272;1271;24817;-74
2022/08/15 10:15:41;;;;;;;11.20;9.70;;;;;;;27.66;60.68;99729.09;106306;1268;22563;-77
2022/08/15 10:18:38;;;;;;;10.60;9.40;;;;;;;27.72;60.17;99724.68;106314;1271;22642;-77
2022/08/15 10:21:17;;;;;;;13.30;9.70;;;;;;;27.85;59.86;99721.74;106127;1271;22663;-73
2022/08/15 10:23:52;;;;;;;10.00;9.10;;;;;;;27.93;59.51;99715.37;106567;1271;22525;-76
2022/08/15 10:26:34;;;;;;;10.30;9.30;;;;;;;28.07;59.48;99714.50;106438;1271;25356;-76
2022/08/15 10:29:09;;;;;;;9.80;8.70;;;;;;;28.14;59.10;99720.29;106510;1268;25426;-76
2022/08/15 10:31:59;;;;;;;10.40;9.30;;;;;;;28.27;59.10;99721.08;107100;1268;25194;-74
2022/08/15 10:35:21;;;;;;;12.10;10.00;;;;;;;28.53;58.70;99720.31;106881;1271;22552;-78
2022/08/15 10:38:02;;;;;;;9.40;8.50;;;;;;;28.67;58.26;99713.92;105825;1276;22564;-77
2022/08/15 10:41:07;;;;;;;10.80;9.40;;;;;;;28.74;57.99;99717.95;106302;1271;23054;-75
2022/08/15 10:44:12;;;;;;;12.50;9.00;;;;;;;28.92;57.62;99720.16;106283;1271;22525;-74
2022/08/15 10:47:15;;;;;;;9.00;8.20;;;;;;;29.20;57.47;99719.55;106227;1271;22528;-75
2022/08/15 10:50:09;;;;;;;10.60;9.00;;;;;;;29.53;57.27;99719.03;106415;1268;22539;-74
2022/08/15 10:52:51;;;;;;;10.00;9.10;;;;;;;29.59;56.36;99724.62;106296;1271;25422;-76
2022/08/15 10:55:32;;;;;;;11.00;8.40;;;;;;;29.63;56.24;99724.05;106251;1271;24307;-75
2022/08/15 10:58:32;;;;;;;13.30;9.00;;;;;;;29.69;55.49;99724.58;106372;1271;25410;-73
2022/08/15 11:01:20;;;;;;;8.60;7.80;;;;;;;29.71;55.37;99725.66;106372;1271;24246;-75
2022/08/15 11:03:58;;;;;;;9.10;8.30;;;;;;;29.77;54.96;99725.50;106202;1271;22533;-75
2022/08/15 11:06:46;;;;;;;9.10;8.20;;;;;;;29.84;55.00;99723.78;106169;1271;26567;-76
2022/08/15 11:09:23;;;;;;;10.10;8.90;;;;;;;29.90;54.74;99718.27;106042;1271;24221;-75
2022/08/15 11:12:02;;;;;;;8.00;7.20;;;;;;;29.96;54.00;99721.65;105531;1271;1241567;-75
2022/08/15 11:14:43;;;;;;;9.70;8.70;;;;;;;29.80;53.80;99718.02;106193;1271;23180;-76
2022/08/15 11:17:19;;;;;;;9.10;8.20;;;;;;;29.62;53.87;99715.23;106448;1271;22541;-76
2022/08/15 11:19:51;;;;;;;10.40;7.90;;;;;;;29.43;54.36;99714.02;106508;1271;25539;-75
2022/08/15 11:22:49;;;;;;;10.10;8.50;;;;;;;29.23;54.55;99715.27;106452;1271;22541;-76
2022/08/15 11:25:25;;;;;;;11.30;8.00;;;;;;;28.95;54.45;99720.98;106390;1271;22707;-76
2022/08/15 11:28:12;;;;;;;10.20;9.10;;;;;;;28.81;55.32;99722.52;106352;1271;22774;-76
2022/08/15 11:31:04;;;;;;;14.00;8.90;;;;;;;28.57;55.97;99721.80;106330;1270;25336;-75
2022/08/15 11:33:40;;;;;;;10.10;9.20;;;;;;;28.40;56.27;99725.36;106319;1270;22564;-76
2022/08/15 11:36:07;;;;;;;8.50;7.70;;;;;;;28.27;56.30;99721.47;106394;1271;22527;-74
2022/08/15 11:38:41;;;;;;;9.90;8.00;;;;;;;28.18;56.73;99725.71;106562;1271;22726;-74
2022/08/15 11:41:37;;;;;;;9.70;8.80;;;;;;;28.25;57.06;99724.87;106438;1271;24292;-78
2022/08/15 11:44:20;;;;;;;12.50;8.80;;;;;;;28.36;56.53;99722.28;106342;1271;22587;-73
2022/08/15 11:46:50;;;;;;;13.60;9.20;;;;;;;28.38;56.23;99719.59;106281;1271;22616;-76
2022/08/15 11:49:51;;;;;;;11.20;8.30;;;;;;;28.47;56.60;99710.56;106355;1268;22562;-76
2022/08/15 11:52:29;;;;;;;10.30;9.10;;;;;;;28.74;56.58;99708.91;106407;1269;22731;-72
2022/08/15 11:55:14;;;;;;;12.10;8.80;;;;;;;28.93;56.18;99708.00;106256;1271;22611;-77
2022/08/15 11:57:52;;;;;;;12.40;9.00;;;;;;;28.97;55.77;99703.10;105827;1276;22544;-75
2022/08/15 12:00:36;;;;;;;9.40;8.60;;;;;;;29.06;55.84;99703.63;105762;1276;22493;-75
2022/08/15 12:03:22;;;;;;;9.80;7.30;;;;;;;29.16;55.18;99704.15;105798;1276;24245;-75
2022/08/15 12:06:12;;;;;;;11.70;7.10;;;;;;;29.25;53.74;99703.30;105796;1276;24381;-75
2022/08/15 12:09:08;;;;;;;9.70;7.60;;;;;;;29.28;53.50;99703.11;105800;1276;22545;-74
2022/08/15 12:11:46;;;;;;;11.00;7.90;;;;;;;29.40;53.45;99703.08;105557;1277;22737;-84
2022/08/15 12:14:32;;;;;;;8.10;7.30;;;;;;;29.52;52.94;99704.23;105693;1276;24397;-75
2022/08/15 12:17:05;;;;;;;7.90;6.80;;;;;;;29.61;52.94;99704.13;106261;1271;25204;-74
2022/08/15 12:19:48;;;;;;;7.70;7.10;;;;;;;29.66;52.62;99706.10;106141;1271;22549;-75
2022/08/15 12:22:39;;;;;;;8.50;7.50;;;;;;;29.71;52.22;99708.55;106253;1271;22663;-75